Time,TemperatureF,DewpointF,PressureIn,WindDirection,WindDirectionDegrees,WindSpeedMPH,WindSpeedGustMPH,Humidity,HourlyPrecipIn,Conditions,Clouds,dailyrainin,SoftwareType,DateUTC
2013-02-19 00:01:00,44.6,34.3,29.68,SW,220,4.0,4.0,67,0.00,,,0.00,Wunderground v.1.15,2013-02-19 05:01:00,
2013-02-19 00:05:00,44.7,34.4,29.68,SW,226,3.0,4.0,67,0.00,,,0.00,Wunderground v.1.15,2013-02-19 05:05:00,
2013-02-19 00:15:00,44.8,34.5,29.67,ESE,117,3.0,4.0,67,0.00,,,0.00,Wunderground v.1.15,2013-02-19 05:15:00,
2013-02-19 00:25:00,45.1,34.4,29.67,SW,229,4.0,6.0,66,0.00,,,0.00,Wunderground v.1.15,2013-02-19 05:25:00,
2013-02-19 00:35:00,45.1,35.2,29.67,SW,228,5.0,6.0,68,0.00,,,0.00,Wunderground v.1.15,2013-02-19 05:35:00,
2013-02-19 00:40:00,44.9,35.7,29.66,SSW,210,6.0,6.0,70,0.00,,,0.00,Wunderground v.1.15,2013-02-19 05:40:00,
2013-02-19 00:50:00,44.7,36.6,29.66,SE,127,5.0,5.0,73,0.00,,,0.00,Wunderground v.1.15,2013-02-19 05:50:00,
2013-02-19 00:55:00,44.5,37.1,29.66,WSW,253,5.0,5.0,75,0.00,,,0.01,Wunderground v.1.15,2013-02-19 05:55:00,
2013-02-19 01:00:00,44.2,37.8,29.65,SW,221,5.0,5.0,78,0.07,,,0.02,Wunderground v.1.15,2013-02-19 06:00:00,
2013-02-19 01:10:00,43.4,38.3,29.64,SSW,210,4.0,4.0,82,0.07,,,0.03,Wunderground v.1.15,2013-02-19 06:10:00,
2013-02-19 01:20:00,42.9,38.4,29.63,SSW,211,4.0,4.0,84,0.05,,,0.03,Wunderground v.1.15,2013-02-19 06:20:00,
2013-02-19 01:25:00,42.5,38.3,29.63,SE,131,4.0,4.0,85,0.04,,,0.03,Wunderground v.1.15,2013-02-19 06:25:00,
2013-02-19 01:35:00,42.1,38.2,29.63,WSW,246,4.0,4.0,86,0.00,,,0.04,Wunderground v.1.15,2013-02-19 06:35:00,
2013-02-19 01:40:00,41.7,37.8,29.62,ESE,118,4.0,4.0,86,0.00,,,0.04,Wunderground v.1.15,2013-02-19 06:40:00,
2013-02-19 01:50:00,41.2,37.6,29.61,SSW,199,4.0,7.0,87,0.00,,,0.05,Wunderground v.1.15,2013-02-19 06:50:00,
2013-02-19 01:55:00,41.2,37.6,29.61,SW,235,4.0,7.0,87,0.00,,,0.05,Wunderground v.1.15,2013-02-19 06:55:00,
2013-02-19 02:00:00,41.2,37.6,29.60,WSW,243,4.0,4.0,87,0.00,,,0.05,Wunderground v.1.15,2013-02-19 07:00:00,
2013-02-19 02:10:00,41.3,38.0,29.60,SSE,155,5.0,5.0,88,0.00,,,0.05,Wunderground v.1.15,2013-02-19 07:10:00,
2013-02-19 02:20:00,41.2,37.9,29.59,SSW,207,4.0,4.0,88,0.00,,,0.05,Wunderground v.1.15,2013-02-19 07:20:00,
2013-02-19 02:30:00,41.4,38.1,29.58,SSW,210,6.0,9.0,88,0.00,,,0.05,Wunderground v.1.15,2013-02-19 07:30:00,
2013-02-19 02:35:00,41.4,38.1,29.58,ENE,76,6.0,9.0,88,0.00,,,0.06,Wunderground v.1.15,2013-02-19 07:35:00,
2013-02-19 02:45:00,41.5,38.5,29.58,SSE,152,6.0,7.0,89,0.05,,,0.07,Wunderground v.1.15,2013-02-19 07:45:00,
2013-02-19 02:50:00,41.6,38.6,29.57,WSW,241,6.0,9.0,89,0.05,,,0.07,Wunderground v.1.15,2013-02-19 07:50:00,
2013-02-19 03:00:00,41.5,38.5,29.57,SW,224,7.0,16.0,89,0.08,,,0.09,Wunderground v.1.15,2013-02-19 08:00:00,
2013-02-19 03:05:00,41.4,38.7,29.56,SW,236,7.0,16.0,90,0.08,,,0.09,Wunderground v.1.15,2013-02-19 08:05:00,
2013-02-19 03:15:00,41.3,38.6,29.55,SSW,210,7.0,15.0,90,0.06,,,0.10,Wunderground v.1.15,2013-02-19 08:15:00,
2013-02-19 03:20:00,41.2,38.5,29.54,NNW,328,7.0,7.0,90,0.06,,,0.11,Wunderground v.1.15,2013-02-19 08:20:00,
2013-02-19 03:30:00,41.0,38.3,29.53,SW,221,7.0,7.0,90,0.05,,,0.11,Wunderground v.1.15,2013-02-19 08:30:00,
2013-02-19 03:40:00,40.9,38.5,29.53,WSW,241,6.0,8.0,91,0.04,,,0.12,Wunderground v.1.15,2013-02-19 08:40:00,
2013-02-19 03:45:00,40.9,38.5,29.53,SW,222,7.0,11.0,91,0.04,,,0.12,Wunderground v.1.15,2013-02-19 08:45:00,
2013-02-19 03:55:00,40.9,38.8,29.52,WSW,250,7.0,7.0,92,0.00,,,0.12,Wunderground v.1.15,2013-02-19 08:55:00,
2013-02-19 04:01:00,40.9,38.8,29.52,SSW,210,7.0,7.0,92,0.00,,,0.13,Wunderground v.1.15,2013-02-19 09:01:00,
2013-02-19 04:10:00,41.0,38.9,29.52,SSW,211,6.0,6.0,92,0.00,,,0.13,Wunderground v.1.15,2013-02-19 09:10:00,
2013-02-19 04:15:00,41.1,39.2,29.51,SSE,158,6.0,6.0,93,0.00,,,0.13,Wunderground v.1.15,2013-02-19 09:15:00,
2013-02-19 04:25:00,41.5,39.6,29.51,SW,235,6.0,6.0,93,0.00,,,0.13,Wunderground v.1.15,2013-02-19 09:25:00,
2013-02-19 04:35:00,41.9,39.7,29.50,SW,217,6.0,6.0,92,0.00,,,0.13,Wunderground v.1.15,2013-02-19 09:35:00,
2013-02-19 04:40:00,42.1,39.9,29.50,SSW,212,6.0,6.0,92,0.00,,,0.13,Wunderground v.1.15,2013-02-19 09:40:00,
2013-02-19 04:50:00,42.8,40.4,29.51,WSW,239,7.0,9.0,91,0.00,,,0.13,Wunderground v.1.15,2013-02-19 09:50:00,
2013-02-19 04:55:00,42.9,40.5,29.51,WSW,245,8.0,9.0,91,0.00,,,0.13,Wunderground v.1.15,2013-02-19 09:55:00,
2013-02-19 05:01:00,42.8,40.6,29.52,WSW,248,6.0,6.0,92,0.00,,,0.14,Wunderground v.1.15,2013-02-19 10:01:00,
2013-02-19 05:10:00,41.9,38.9,29.53,WSW,241,8.0,8.0,89,0.07,,,0.15,Wunderground v.1.15,2013-02-19 10:10:00,
2013-02-19 05:20:00,40.7,37.1,29.54,SW,221,8.0,10.0,87,0.00,,,0.15,Wunderground v.1.15,2013-02-19 10:20:00,
2013-02-19 05:25:00,40.0,36.4,29.54,WSW,245,10.0,15.0,87,0.00,,,0.15,Wunderground v.1.15,2013-02-19 10:25:00,
2013-02-19 05:35:00,39.3,36.0,29.55,West,260,9.0,9.0,88,0.00,,,0.15,Wunderground v.1.15,2013-02-19 10:35:00,
2013-02-19 05:40:00,38.9,35.1,29.56,WSW,241,10.0,10.0,86,0.00,,,0.15,Wunderground v.1.15,2013-02-19 10:40:00,
2013-02-19 05:50:00,37.9,34.1,29.57,SSW,212,9.0,9.0,86,0.00,,,0.15,Wunderground v.1.15,2013-02-19 10:50:00,
2013-02-19 05:55:00,37.5,34.0,29.57,SW,233,8.0,9.0,87,0.00,,,0.15,Wunderground v.1.15,2013-02-19 10:55:00,
2013-02-19 06:00:00,37.3,33.8,29.58,WSW,257,7.0,11.0,87,0.00,,,0.15,Wunderground v.1.15,2013-02-19 11:00:00,
2013-02-19 06:10:00,37.0,33.8,29.59,SW,233,7.0,7.0,88,0.00,,,0.15,Wunderground v.1.15,2013-02-19 11:10:00,
2013-02-19 06:20:00,36.6,33.4,29.59,WSW,245,7.0,7.0,88,0.00,,,0.15,Wunderground v.1.15,2013-02-19 11:20:00,
2013-02-19 06:25:00,36.5,33.3,29.60,WSW,239,7.0,7.0,88,0.00,,,0.15,Wunderground v.1.15,2013-02-19 11:25:00,
2013-02-19 06:35:00,36.3,32.8,29.60,WSW,238,7.0,11.0,87,0.00,,,0.15,Wunderground v.1.15,2013-02-19 11:35:00,
2013-02-19 06:45:00,36.2,33.0,29.60,SW,226,7.0,13.0,88,0.00,,,0.15,Wunderground v.1.15,2013-02-19 11:45:00,
2013-02-19 06:55:00,35.3,32.4,29.60,SW,229,8.0,10.0,89,0.00,,,0.15,Wunderground v.1.15,2013-02-19 11:55:00,
2013-02-19 07:00:00,34.9,32.3,29.61,WSW,246,8.0,8.0,90,0.00,,,0.15,Wunderground v.1.15,2013-02-19 12:00:00,
2013-02-19 07:10:00,34.4,32.0,29.61,WSW,246,8.0,8.0,91,0.00,,,0.15,Wunderground v.1.15,2013-02-19 12:10:00,
2013-02-19 07:20:00,34.0,31.6,29.61,SSW,202,6.0,6.0,91,0.00,,,0.15,Wunderground v.1.15,2013-02-19 12:20:00,
2013-02-19 07:30:00,33.3,30.4,29.62,South,191,8.0,8.0,89,0.00,,,0.15,Wunderground v.1.15,2013-02-19 12:30:00,
2013-02-19 07:35:00,33.0,30.1,29.63,WSW,238,8.0,14.0,89,0.00,,,0.15,Wunderground v.1.15,2013-02-19 12:35:00,
2013-02-19 07:45:00,32.7,29.5,29.63,WSW,248,10.0,11.0,88,0.00,,,0.15,Wunderground v.1.15,2013-02-19 12:45:00,
2013-02-19 07:55:00,32.3,29.1,29.64,SW,231,7.0,11.0,88,0.00,,,0.15,Wunderground v.1.15,2013-02-19 12:55:00,
2013-02-19 08:01:00,32.0,28.8,29.64,WSW,253,7.0,7.0,88,0.00,,,0.15,Wunderground v.1.15,2013-02-19 13:01:00,
2013-02-19 08:10:00,31.4,28.3,29.66,SW,219,8.0,9.0,88,0.00,,,0.15,Wunderground v.1.15,2013-02-19 13:10:00,
2013-02-19 08:15:00,31.2,28.1,29.66,SW,229,8.0,9.0,88,0.00,,,0.15,Wunderground v.1.15,2013-02-19 13:15:00,
2013-02-19 08:25:00,30.7,27.6,29.66,West,263,8.0,9.0,88,0.00,,,0.15,Wunderground v.1.15,2013-02-19 13:25:00,
2013-02-19 08:30:00,30.6,27.7,29.66,WSW,242,8.0,9.0,89,0.00,,,0.15,Wunderground v.1.15,2013-02-19 13:30:00,
2013-02-19 08:40:00,30.0,26.9,29.67,WSW,255,7.0,8.0,88,0.00,,,0.15,Wunderground v.1.15,2013-02-19 13:40:00,
2013-02-19 08:45:00,29.7,26.3,29.67,SW,235,8.0,8.0,87,0.00,,,0.15,Wunderground v.1.15,2013-02-19 13:45:00,
2013-02-19 08:55:00,29.2,25.5,29.68,WSW,250,8.0,10.0,86,0.00,,,0.15,Wunderground v.1.15,2013-02-19 13:55:00,
2013-02-19 09:01:00,28.8,24.6,29.68,SW,230,8.0,11.0,84,0.00,,,0.15,Wunderground v.1.15,2013-02-19 14:01:00,
2013-02-19 09:10:00,28.2,24.0,29.69,SW,236,11.0,11.0,84,0.00,,,0.15,Wunderground v.1.15,2013-02-19 14:10:00,
2013-02-19 09:20:00,27.9,23.4,29.69,West,264,10.0,10.0,83,0.00,,,0.15,Wunderground v.1.15,2013-02-19 14:20:00,
2013-02-19 09:30:00,27.6,22.8,29.70,SW,221,9.0,13.0,82,0.00,,,0.15,Wunderground v.1.15,2013-02-19 14:30:00,
2013-02-19 09:35:00,27.4,22.3,29.70,WSW,245,9.0,13.0,81,0.00,,,0.15,Wunderground v.1.15,2013-02-19 14:35:00,
2013-02-19 09:40:00,27.4,22.3,29.70,WSW,245,10.0,10.0,81,0.00,,,0.15,Wunderground v.1.15,2013-02-19 14:40:00,
2013-02-19 09:50:00,26.8,21.8,29.71,SW,221,9.0,9.0,81,0.00,,,0.15,Wunderground v.1.15,2013-02-19 14:50:00,
2013-02-19 09:55:00,26.7,21.9,29.71,SW,226,8.0,9.0,82,0.00,,,0.15,Wunderground v.1.15,2013-02-19 14:55:00,
2013-02-19 10:01:00,26.5,22.3,29.71,South,179,8.0,8.0,84,0.00,,,0.15,Wunderground v.1.15,2013-02-19 15:01:00,
2013-02-19 10:10:00,26.2,21.2,29.72,SW,222,9.0,9.0,81,0.00,,,0.15,Wunderground v.1.15,2013-02-19 15:10:00,
2013-02-19 10:15:00,26.3,21.0,29.71,WSW,256,10.0,10.0,80,0.00,,,0.15,Wunderground v.1.15,2013-02-19 15:15:00,
2013-02-19 10:25:00,26.7,19.8,29.72,SW,231,8.0,9.0,75,0.00,,,0.15,Wunderground v.1.15,2013-02-19 15:25:00,
2013-02-19 10:35:00,27.0,20.7,29.72,West,259,7.0,8.0,77,0.00,,,0.15,Wunderground v.1.15,2013-02-19 15:35:00,
2013-02-19 10:40:00,26.8,21.2,29.72,WSW,240,7.0,7.0,79,0.00,,,0.15,Wunderground v.1.15,2013-02-19 15:40:00,
2013-02-19 10:50:00,26.5,22.0,29.73,WSW,247,7.0,7.0,83,0.00,,,0.15,Wunderground v.1.15,2013-02-19 15:50:00,
2013-02-19 10:55:00,26.2,22.0,29.73,SW,229,7.0,11.0,84,0.00,,,0.15,Wunderground v.1.15,2013-02-19 15:55:00,
2013-02-19 11:01:00,25.9,21.4,29.73,WSW,237,8.0,10.0,83,0.00,,,0.15,Wunderground v.1.15,2013-02-19 16:01:00,
2013-02-19 11:10:00,25.4,21.2,29.73,WSW,245,7.0,8.0,84,0.00,,,0.15,Wunderground v.1.15,2013-02-19 16:10:00,
2013-02-19 11:15:00,25.2,21.3,29.74,WSW,245,8.0,8.0,85,0.00,,,0.15,Wunderground v.1.15,2013-02-19 16:15:00,
2013-02-19 11:25:00,25.0,20.8,29.74,WSW,246,8.0,9.0,84,0.00,,,0.15,Wunderground v.1.15,2013-02-19 16:25:00,
2013-02-19 11:30:00,24.8,20.4,29.74,WSW,246,9.0,11.0,83,0.00,,,0.15,Wunderground v.1.15,2013-02-19 16:30:00,
2013-02-19 11:40:00,24.9,21.0,29.75,SW,225,7.0,7.0,85,0.00,,,0.15,Wunderground v.1.15,2013-02-19 16:40:00,
2013-02-19 11:50:00,25.1,20.4,29.75,WSW,256,8.0,9.0,82,0.00,,,0.15,Wunderground v.1.15,2013-02-19 16:50:00,
2013-02-19 12:00:00,24.8,19.8,29.75,SW,225,8.0,8.0,81,0.00,,,0.15,Wunderground v.1.15,2013-02-19 17:00:00,
2013-02-19 12:05:00,24.7,20.0,29.75,WSW,240,8.0,18.0,82,0.00,,,0.15,Wunderground v.1.15,2013-02-19 17:05:00,
2013-02-19 12:15:00,24.2,19.2,29.75,SW,222,9.0,9.0,81,0.00,,,0.15,Wunderground v.1.15,2013-02-19 17:15:00,
2013-02-19 12:25:00,24.0,19.0,29.75,SW,229,8.0,8.0,81,0.00,,,0.15,Wunderground v.1.15,2013-02-19 17:25:00,
2013-02-19 12:35:00,24.1,18.5,29.76,SW,232,9.0,9.0,79,0.00,,,0.15,Wunderground v.1.15,2013-02-19 17:35:00,
2013-02-19 12:45:00,24.4,18.5,29.75,WSW,246,7.0,11.0,78,0.00,,,0.15,Wunderground v.1.15,2013-02-19 17:45:00,
2013-02-19 12:55:00,24.6,18.1,29.75,SW,236,6.0,8.0,76,0.00,,,0.15,Wunderground v.1.15,2013-02-19 17:55:00,
2013-02-19 13:00:00,24.7,17.6,29.75,WSW,255,7.0,7.0,74,0.00,,,0.15,Wunderground v.1.15,2013-02-19 18:00:00,
2013-02-19 13:06:00,24.9,17.5,29.76,SSW,203,7.0,7.0,73,0.00,,,0.15,Wunderground v.1.15,2013-02-19 18:06:00,
2013-02-19 13:15:00,24.3,15.9,29.76,SW,214,10.0,18.0,70,0.00,,,0.15,Wunderground v.1.15,2013-02-19 18:15:00,
2013-02-19 13:20:00,24.0,15.6,29.76,WNW,296,11.0,11.0,70,0.00,,,0.15,Wunderground v.1.15,2013-02-19 18:20:00,
2013-02-19 13:30:00,24.7,16.0,29.76,West,276,9.0,10.0,69,0.00,,,0.15,Wunderground v.1.15,2013-02-19 18:30:00,
2013-02-19 13:40:00,24.4,15.7,29.77,SW,230,9.0,9.0,69,0.00,,,0.15,Wunderground v.1.15,2013-02-19 18:40:00,
2013-02-19 13:50:00,23.8,14.1,29.77,SW,226,11.0,11.0,66,0.00,,,0.15,Wunderground v.1.15,2013-02-19 18:50:00,
2013-02-19 13:55:00,23.8,14.1,29.77,West,260,11.0,11.0,66,0.00,,,0.15,Wunderground v.1.15,2013-02-19 18:55:00,
2013-02-19 14:01:00,23.7,14.3,29.78,WSW,238,10.0,10.0,67,0.00,,,0.15,Wunderground v.1.15,2013-02-19 19:01:00,
2013-02-19 14:10:00,23.5,14.1,29.78,West,268,8.0,8.0,67,0.00,,,0.15,Wunderground v.1.15,2013-02-19 19:10:00,
2013-02-19 14:15:00,23.5,14.5,29.78,SW,217,8.0,8.0,68,0.00,,,0.15,Wunderground v.1.15,2013-02-19 19:15:00,
2013-02-19 14:25:00,23.4,13.4,29.78,WSW,248,9.0,16.0,65,0.00,,,0.15,Wunderground v.1.15,2013-02-19 19:25:00,
2013-02-19 14:31:00,23.2,13.2,29.78,SW,233,9.0,13.0,65,0.00,,,0.15,Wunderground v.1.15,2013-02-19 19:31:00,
2013-02-19 14:40:00,22.9,14.9,29.79,SSW,212,9.0,15.0,71,0.00,,,0.15,Wunderground v.1.15,2013-02-19 19:40:00,
2013-02-19 14:45:00,22.9,14.2,29.80,West,261,9.0,15.0,69,0.00,,,0.15,Wunderground v.1.15,2013-02-19 19:45:00,
2013-02-19 14:56:00,22.9,12.5,29.80,WSW,250,11.0,12.0,64,0.00,,,0.15,Wunderground v.1.15,2013-02-19 19:56:00,
2013-02-19 15:01:00,23.0,12.6,29.80,West,262,11.0,12.0,64,0.00,,,0.15,Wunderground v.1.15,2013-02-19 20:01:00,
2013-02-19 15:11:00,22.8,12.8,29.81,WSW,245,10.0,15.0,65,0.00,,,0.15,Wunderground v.1.15,2013-02-19 20:11:00,
2013-02-19 15:20:00,22.8,12.8,29.81,SW,234,10.0,13.0,65,0.00,,,0.15,Wunderground v.1.15,2013-02-19 20:20:00,
2013-02-19 15:26:00,22.7,12.3,29.82,WSW,254,11.0,15.0,64,0.00,,,0.15,Wunderground v.1.15,2013-02-19 20:26:00,
2013-02-19 15:35:00,22.7,12.7,29.82,West,264,9.0,11.0,65,0.00,,,0.15,Wunderground v.1.15,2013-02-19 20:35:00,
2013-02-19 15:40:00,22.7,11.6,29.83,WSW,255,9.0,11.0,62,0.00,,,0.15,Wunderground v.1.15,2013-02-19 20:40:00,
2013-02-19 15:50:00,22.3,12.0,29.83,SW,217,10.0,10.0,64,0.00,,,0.15,Wunderground v.1.15,2013-02-19 20:50:00,
2013-02-19 15:55:00,22.5,13.2,29.84,WSW,252,7.0,10.0,67,0.00,,,0.15,Wunderground v.1.15,2013-02-19 20:55:00,
2013-02-19 16:01:00,22.3,11.6,29.84,WSW,242,8.0,13.0,63,0.00,,,0.15,Wunderground v.1.15,2013-02-19 21:01:00,
2013-02-19 16:10:00,22.0,11.3,29.85,West,276,10.0,10.0,63,0.00,,,0.15,Wunderground v.1.15,2013-02-19 21:10:00,
2013-02-19 16:20:00,21.9,11.6,29.85,SSW,206,9.0,9.0,64,0.00,,,0.15,Wunderground v.1.15,2013-02-19 21:20:00,
2013-02-19 16:31:00,21.7,11.4,29.86,West,262,10.0,10.0,64,0.00,,,0.15,Wunderground v.1.15,2013-02-19 21:31:00,
2013-02-19 16:40:00,21.9,10.9,29.87,West,262,10.0,14.0,62,0.00,,,0.15,Wunderground v.1.15,2013-02-19 21:40:00,
2013-02-19 16:45:00,21.8,11.1,29.87,West,264,9.0,14.0,63,0.00,,,0.15,Wunderground v.1.15,2013-02-19 21:45:00,
2013-02-19 16:56:00,21.9,11.2,29.88,WSW,252,8.0,9.0,63,0.00,,,0.15,Wunderground v.1.15,2013-02-19 21:56:00,
2013-02-19 17:01:00,21.7,11.0,29.88,SW,219,8.0,19.0,63,0.00,,,0.15,Wunderground v.1.15,2013-02-19 22:01:00,
2013-02-19 17:10:00,21.3,11.7,29.89,SW,222,9.0,11.0,66,0.00,,,0.15,Wunderground v.1.15,2013-02-19 22:10:00,
2013-02-19 17:15:00,21.1,11.5,29.89,WSW,245,8.0,11.0,66,0.00,,,0.15,Wunderground v.1.15,2013-02-19 22:15:00,
2013-02-19 17:26:00,21.0,10.7,29.90,WSW,251,10.0,15.0,64,0.00,,,0.15,Wunderground v.1.15,2013-02-19 22:26:00,
2013-02-19 17:35:00,20.9,11.0,29.90,WSW,246,10.0,18.0,65,0.00,,,0.15,Wunderground v.1.15,2013-02-19 22:35:00,
2013-02-19 17:40:00,20.9,11.0,29.90,West,262,8.0,11.0,65,0.00,,,0.15,Wunderground v.1.15,2013-02-19 22:40:00,
2013-02-19 17:51:00,20.8,11.2,29.91,SW,233,9.0,9.0,66,0.00,,,0.15,Wunderground v.1.15,2013-02-19 22:51:00,
2013-02-19 18:01:00,20.5,12.6,29.91,West,269,8.0,9.0,71,0.00,,,0.15,Wunderground v.1.15,2013-02-19 23:01:00,
2013-02-19 18:06:00,20.1,13.1,29.92,West,264,9.0,12.0,74,0.00,,,0.15,Wunderground v.1.15,2013-02-19 23:06:00,
2013-02-19 18:15:00,19.6,13.3,29.92,WSW,238,9.0,10.0,76,0.00,,,0.15,Wunderground v.1.15,2013-02-19 23:15:00,
2013-02-19 18:20:00,19.6,13.3,29.93,SSW,207,8.0,8.0,76,0.00,,,0.15,Wunderground v.1.15,2013-02-19 23:20:00,
2013-02-19 18:31:00,19.6,13.6,29.93,SW,219,8.0,8.0,77,0.00,,,0.15,Wunderground v.1.15,2013-02-19 23:31:00,
2013-02-19 18:40:00,19.3,13.9,29.94,SW,224,8.0,8.0,79,0.00,,,0.15,Wunderground v.1.15,2013-02-19 23:40:00,
2013-02-19 18:45:00,19.3,14.7,29.95,West,280,7.0,8.0,82,0.00,,,0.15,Wunderground v.1.15,2013-02-19 23:45:00,
2013-02-19 18:55:00,18.9,13.7,29.95,WSW,255,8.0,8.0,80,0.00,,,0.15,Wunderground v.1.15,2013-02-19 23:55:00,
2013-02-19 19:01:00,18.8,13.4,29.95,West,267,9.0,9.0,79,0.00,,,0.15,Wunderground v.1.15,2013-02-20 00:01:00,
2013-02-19 19:10:00,18.9,13.5,29.96,West,271,8.0,11.0,79,0.00,,,0.15,Wunderground v.1.15,2013-02-20 00:10:00,
2013-02-19 19:15:00,19.1,13.4,29.96,WNW,283,7.0,11.0,78,0.00,,,0.15,Wunderground v.1.15,2013-02-20 00:15:00,
2013-02-19 19:26:00,19.2,12.0,29.96,WSW,246,9.0,16.0,73,0.00,,,0.15,Wunderground v.1.15,2013-02-20 00:26:00,
2013-02-19 19:35:00,19.4,11.5,29.97,WSW,240,9.0,9.0,71,0.00,,,0.15,Wunderground v.1.15,2013-02-20 00:35:00,
2013-02-19 19:40:00,19.4,11.8,29.97,SW,232,8.0,8.0,72,0.00,,,0.15,Wunderground v.1.15,2013-02-20 00:40:00,
2013-02-19 19:50:00,19.3,11.7,29.97,West,275,8.0,8.0,72,0.00,,,0.15,Wunderground v.1.15,2013-02-20 00:50:00,
2013-02-19 19:55:00,19.3,12.1,29.97,WSW,246,7.0,8.0,73,0.00,,,0.15,Wunderground v.1.15,2013-02-20 00:55:00,
2013-02-19 20:01:00,19.2,11.3,29.97,SW,231,7.0,7.0,71,0.00,,,0.15,Wunderground v.1.15,2013-02-20 01:01:00,
2013-02-19 20:11:00,19.3,11.1,29.98,WSW,258,9.0,14.0,70,0.00,,,0.15,Wunderground v.1.15,2013-02-20 01:11:00,
2013-02-19 20:20:00,19.3,11.4,29.98,West,271,8.0,8.0,71,0.00,,,0.15,Wunderground v.1.15,2013-02-20 01:20:00,
2013-02-19 20:30:00,19.2,11.0,29.98,SW,231,9.0,9.0,70,0.00,,,0.15,Wunderground v.1.15,2013-02-20 01:30:00,
2013-02-19 20:40:00,19.1,11.2,29.98,SW,231,8.0,8.0,71,0.00,,,0.15,Wunderground v.1.15,2013-02-20 01:40:00,
2013-02-19 20:50:00,19.0,11.1,29.98,West,266,7.0,7.0,71,0.00,,,0.15,Wunderground v.1.15,2013-02-20 01:50:00,
2013-02-19 21:00:00,18.9,11.0,29.99,WSW,241,9.0,10.0,71,0.00,,,0.15,Wunderground v.1.15,2013-02-20 02:00:00,
2013-02-19 21:10:00,18.9,11.4,29.99,West,259,7.0,7.0,72,0.00,,,0.15,Wunderground v.1.15,2013-02-20 02:10:00,
2013-02-19 21:20:00,18.8,11.3,29.99,WSW,241,8.0,8.0,72,0.00,,,0.15,Wunderground v.1.15,2013-02-20 02:20:00,
2013-02-19 21:25:00,18.8,10.9,29.99,WSW,258,8.0,8.0,71,0.00,,,0.15,Wunderground v.1.15,2013-02-20 02:25:00,
2013-02-19 21:35:00,18.8,11.3,29.99,WSW,240,8.0,11.0,72,0.00,,,0.15,Wunderground v.1.15,2013-02-20 02:35:00,
2013-02-19 21:45:00,18.8,11.3,30.00,SW,222,9.0,11.0,72,0.00,,,0.15,Wunderground v.1.15,2013-02-20 02:45:00,
2013-02-19 21:55:00,18.8,11.3,30.00,WSW,247,8.0,8.0,72,0.00,,,0.15,Wunderground v.1.15,2013-02-20 02:55:00,
2013-02-19 22:00:00,18.7,11.5,30.00,WSW,245,7.0,11.0,73,0.00,,,0.15,Wunderground v.1.15,2013-02-20 03:00:00,
2013-02-19 22:10:00,18.6,11.7,30.00,SW,236,7.0,9.0,74,0.00,,,0.15,Wunderground v.1.15,2013-02-20 03:10:00,
2013-02-19 22:20:00,18.5,11.6,30.01,WSW,248,7.0,7.0,74,0.00,,,0.15,Wunderground v.1.15,2013-02-20 03:20:00,
2013-02-19 22:30:00,18.5,11.6,30.01,SW,236,8.0,8.0,74,0.00,,,0.15,Wunderground v.1.15,2013-02-20 03:30:00,
2013-02-19 22:40:00,18.4,11.8,30.02,SW,230,7.0,7.0,75,0.00,,,0.15,Wunderground v.1.15,2013-02-20 03:40:00,
2013-02-19 22:50:00,18.4,11.8,30.02,WSW,239,7.0,8.0,75,0.00,,,0.15,Wunderground v.1.15,2013-02-20 03:50:00,
2013-02-19 22:55:00,18.4,11.8,30.02,WSW,243,7.0,8.0,75,0.00,,,0.15,Wunderground v.1.15,2013-02-20 03:55:00,
2013-02-19 23:00:00,18.3,12.0,30.02,SW,233,7.0,7.0,76,0.00,,,0.15,Wunderground v.1.15,2013-02-20 04:00:00,
2013-02-19 23:10:00,18.5,12.5,30.02,WSW,238,5.0,5.0,77,0.00,,,0.15,Wunderground v.1.15,2013-02-20 04:10:00,
2013-02-19 23:15:00,18.4,12.1,30.01,WSW,249,6.0,8.0,76,0.00,,,0.15,Wunderground v.1.15,2013-02-20 04:15:00,
2013-02-19 23:25:00,18.3,12.3,30.02,WSW,249,7.0,7.0,77,0.00,,,0.15,Wunderground v.1.15,2013-02-20 04:25:00,
2013-02-19 23:35:00,18.3,12.6,30.02,WSW,257,6.0,7.0,78,0.00,,,0.15,Wunderground v.1.15,2013-02-20 04:35:00,
2013-02-19 23:45:00,18.3,12.6,30.02,SW,229,6.0,8.0,78,0.00,,,0.15,Wunderground v.1.15,2013-02-20 04:45:00,
2013-02-19 23:55:00,18.3,12.6,30.02,West,270,7.0,8.0,78,0.00,,,0.15,Wunderground v.1.15,2013-02-20 04:55:00,